createdAt,value
2023-09-11T00:00:22.548Z,26.02
2023-09-11T00:01:54.106Z,21.57
2023-09-11T00:03:25.724Z,25.01
2023-09-11T00:04:57.335Z,21.32
2023-09-11T00:06:28.832Z,21.42
2023-09-11T00:08:00.324Z,23.17
2023-09-11T00:09:31.747Z,26.38
2023-09-11T00:11:03.474Z,25.55
2023-09-11T00:12:35.093Z,25.15
2023-09-11T00:14:06.707Z,22.98
2023-09-11T00:15:38.291Z,23.50
2023-09-11T00:17:09.960Z,21.86
2023-09-11T00:18:41.860Z,23.94
2023-09-11T00:20:13.644Z,24.53
2023-09-11T00:21:45.154Z,23.94
2023-09-11T00:23:16.673Z,23.70
2023-09-11T00:24:48.379Z,26.42
2023-09-11T00:26:20.002Z,25.48
2023-09-11T00:27:51.467Z,24.39
2023-09-11T00:29:22.981Z,24.36
2023-09-11T00:30:54.556Z,21.71
2023-09-11T00:32:26.181Z,24.40
2023-09-11T00:33:58.401Z,23.45
2023-09-11T00:35:30.170Z,23.52
2023-09-11T00:37:01.716Z,23.35
2023-09-11T00:38:33.238Z,24.48
2023-09-11T00:40:04.793Z,22.93
2023-09-11T00:41:36.345Z,25.20
2023-09-11T00:43:07.931Z,23.14
2023-09-11T00:44:40.323Z,22.86
2023-09-11T00:46:11.869Z,29.54
2023-09-11T00:47:43.426Z,27.93
2023-09-11T00:49:14.954Z,23.28
2023-09-11T00:50:46.419Z,24.55
2023-09-11T00:52:18.042Z,24.24
2023-09-11T00:53:49.634Z,24.95
2023-09-11T00:55:21.114Z,26.31
2023-09-11T00:56:52.601Z,20.72
2023-09-11T00:58:24.039Z,23.91
2023-09-11T00:59:55.949Z,21.06
2023-09-11T01:01:27.484Z,22.86
2023-09-11T01:02:59.093Z,28.05
2023-09-11T01:04:30.671Z,28.54
2023-09-11T01:06:02.074Z,25.23
2023-09-11T01:07:33.817Z,26.57
2023-09-11T01:09:05.349Z,23.96
2023-09-11T01:10:36.803Z,24.99
2023-09-11T01:12:08.295Z,25.30
2023-09-11T01:13:40.034Z,22.51
2023-09-11T01:15:11.598Z,25.33
2023-09-11T01:16:43.152Z,25.08
2023-09-11T01:18:14.794Z,21.34
2023-09-11T01:19:46.299Z,27.23
2023-09-11T01:21:17.741Z,23.72
2023-09-11T01:22:49.159Z,25.29
2023-09-11T01:24:20.605Z,25.08
2023-09-11T01:25:52.032Z,24.34
2023-09-11T01:27:23.819Z,24.12
2023-09-11T01:28:55.331Z,23.88
2023-09-11T01:30:26.879Z,22.96
2023-09-11T01:31:58.422Z,22.60
2023-09-11T01:33:30.046Z,21.84
2023-09-11T01:35:01.735Z,23.18
2023-09-11T01:36:33.363Z,22.58
2023-09-11T01:38:04.801Z,25.38
2023-09-11T01:39:36.195Z,23.46
2023-09-11T01:41:07.731Z,22.03
2023-09-11T01:42:39.201Z,20.87
2023-09-11T01:44:10.600Z,25.49
2023-09-11T01:45:42.089Z,22.62
2023-09-11T01:47:13.484Z,23.55
2023-09-11T01:48:45.120Z,24.76
2023-09-11T01:50:16.672Z,24.30
2023-09-11T01:51:48.104Z,24.58
2023-09-11T01:53:21.280Z,22.85
2023-09-11T01:54:53.154Z,24.53
2023-09-11T01:56:24.582Z,20.17
2023-09-11T01:57:56.360Z,23.28
2023-09-11T01:59:27.884Z,24.08
2023-09-11T02:00:59.449Z,24.45
2023-09-11T02:02:31.320Z,24.20
2023-09-11T02:04:02.928Z,23.66
2023-09-11T02:05:34.675Z,22.05
2023-09-11T02:07:06.094Z,21.74
2023-09-11T02:08:37.678Z,23.74
2023-09-11T02:10:09.122Z,20.37
2023-09-11T02:11:40.751Z,20.64
2023-09-11T02:13:12.165Z,20.42
2023-09-11T02:14:43.669Z,24.45
2023-09-11T02:16:15.202Z,19.66
2023-09-11T02:17:46.956Z,22.45
2023-09-11T02:19:18.689Z,19.81
2023-09-11T02:20:50.244Z,19.95
2023-09-11T02:22:21.884Z,20.59
2023-09-11T02:23:53.407Z,22.51
2023-09-11T02:25:25.002Z,21.63
2023-09-11T02:26:56.610Z,19.76
2023-09-11T02:28:33.367Z,21.08
2023-09-11T02:30:04.893Z,24.39
2023-09-11T02:31:36.376Z,19.03
2023-09-11T02:33:08.039Z,20.92
2023-09-11T02:34:39.592Z,19.22
2023-09-11T02:36:11.095Z,21.05
2023-09-11T02:37:43.717Z,21.87
2023-09-11T02:39:15.427Z,21.65
2023-09-11T02:40:55.685Z,20.23
2023-09-11T02:42:34.704Z,19.44
2023-09-11T02:44:06.117Z,18.86
2023-09-11T02:45:39.195Z,19.70
2023-09-11T02:47:10.792Z,19.20
2023-09-11T02:48:43.022Z,17.02
2023-09-11T02:50:14.881Z,19.54
2023-09-11T02:51:46.576Z,21.46
2023-09-11T02:53:19.201Z,18.48
2023-09-11T02:54:50.937Z,18.52
2023-09-11T02:56:22.663Z,19.37
2023-09-11T02:57:54.109Z,23.06
2023-09-11T02:59:25.596Z,18.59
2023-09-11T03:00:57.536Z,20.40
2023-09-11T03:02:29.070Z,18.87
2023-09-11T03:04:00.763Z,19.38
2023-09-11T03:05:33.020Z,19.63
2023-09-11T03:07:09.562Z,20.94
2023-09-11T03:08:41.344Z,20.32
2023-09-11T03:10:13.230Z,20.37
2023-09-11T03:11:44.938Z,21.04
2023-09-11T03:13:16.507Z,19.54
2023-09-11T03:14:48.153Z,18.78
2023-09-11T03:16:20.580Z,19.73
2023-09-11T03:17:52.257Z,19.52
2023-09-11T03:19:23.835Z,19.84
2023-09-11T03:20:55.322Z,19.54
2023-09-11T03:22:27.215Z,20.32
2023-09-11T03:23:58.664Z,18.46
2023-09-11T03:25:30.347Z,19.82
2023-09-11T03:27:01.984Z,18.31
2023-09-11T03:28:33.532Z,20.19
2023-09-11T03:30:04.985Z,18.79
2023-09-11T03:31:36.474Z,21.42
2023-09-11T03:33:13.042Z,19.65
2023-09-11T03:34:44.646Z,18.75
2023-09-11T03:36:16.086Z,18.52
2023-09-11T03:37:47.526Z,17.70
2023-09-11T03:39:18.956Z,22.64
2023-09-11T03:40:50.382Z,23.91
2023-09-11T03:42:21.834Z,17.65
2023-09-11T03:43:53.372Z,17.38
2023-09-11T03:45:24.763Z,19.12
2023-09-11T03:46:56.271Z,21.23
2023-09-11T03:48:37.961Z,18.96
2023-09-11T03:50:09.524Z,21.32
2023-09-11T03:51:41.063Z,19.20
2023-09-11T03:53:12.475Z,23.73
2023-09-11T03:54:43.864Z,19.01
2023-09-11T03:56:15.335Z,23.15
2023-09-11T03:57:46.803Z,20.65
2023-09-11T03:59:18.285Z,20.99
2023-09-11T04:01:36.448Z,23.36
2023-09-11T04:03:26.496Z,20.07
2023-09-11T04:04:59.857Z,19.05
2023-09-11T04:06:31.616Z,19.63
2023-09-11T04:08:03.067Z,19.41
2023-09-11T04:09:34.938Z,20.77
2023-09-11T04:11:06.584Z,20.41
2023-09-11T04:12:38.553Z,20.65
2023-09-11T04:14:10.040Z,18.20
2023-09-11T04:15:41.485Z,21.52
2023-09-11T04:17:13.097Z,21.58
2023-09-11T04:18:45.188Z,18.49
2023-09-11T04:20:17.182Z,17.66
2023-09-11T04:21:50.122Z,17.23
2023-09-11T04:23:21.802Z,18.56
2023-09-11T04:24:53.282Z,20.11
2023-09-11T04:26:24.853Z,18.84
2023-09-11T04:27:56.471Z,19.82
2023-09-11T04:29:28.119Z,21.02
2023-09-11T04:30:59.743Z,20.86
2023-09-11T04:32:31.472Z,20.10
2023-09-11T04:34:02.981Z,20.19
2023-09-11T04:35:34.466Z,19.61
2023-09-11T04:37:06.007Z,18.23
2023-09-11T04:38:37.446Z,19.54
2023-09-11T04:40:08.897Z,17.76
2023-09-11T04:41:40.344Z,21.09
2023-09-11T04:43:12.010Z,22.70
2023-09-11T04:44:43.485Z,20.31
2023-09-11T04:46:14.967Z,22.12
2023-09-11T04:47:46.489Z,24.71
2023-09-11T04:49:18.085Z,20.92
2023-09-11T04:50:49.468Z,23.15
2023-09-11T04:52:20.919Z,25.77
2023-09-11T04:53:57.411Z,25.11
2023-09-11T04:55:28.903Z,22.92
2023-09-11T04:57:00.587Z,22.72
2023-09-11T04:58:33.236Z,21.54
2023-09-11T05:00:04.840Z,25.31
2023-09-11T05:01:36.363Z,20.35
2023-09-11T05:03:08.189Z,23.08
2023-09-11T05:04:40.295Z,24.24
2023-09-11T05:06:12.007Z,22.63
2023-09-11T05:07:43.530Z,20.15
2023-09-11T05:09:15.012Z,21.25
2023-09-11T05:10:46.464Z,24.38
2023-09-11T05:12:42.979Z,24.99
2023-09-11T05:14:14.389Z,22.16
2023-09-11T05:15:45.832Z,22.15
2023-09-11T05:17:17.266Z,17.67
2023-09-11T05:18:48.941Z,21.42
2023-09-11T05:20:20.617Z,20.72
2023-09-11T05:21:52.133Z,22.33
2023-09-11T05:23:23.627Z,22.61
2023-09-11T05:24:55.062Z,27.04
2023-09-11T05:26:26.529Z,24.56
2023-09-11T05:27:58.060Z,19.46
2023-09-11T05:29:29.657Z,21.59
2023-09-11T05:31:01.025Z,21.54
2023-09-11T05:32:32.677Z,21.29
2023-09-11T05:34:04.440Z,23.68
2023-09-11T05:35:35.962Z,22.15
2023-09-11T05:37:07.452Z,21.50
2023-09-11T05:38:39.327Z,20.51
2023-09-11T05:40:11.145Z,19.12
2023-09-11T05:41:42.610Z,21.96
2023-09-11T05:43:14.054Z,24.18
2023-09-11T05:44:45.572Z,19.45
2023-09-11T05:46:17.185Z,22.46
2023-09-11T05:47:48.875Z,21.37
2023-09-11T05:49:20.384Z,19.10
2023-09-11T05:50:51.800Z,17.28
2023-09-11T05:52:23.236Z,20.70
2023-09-11T05:53:54.756Z,22.84
2023-09-11T05:55:26.172Z,19.27
2023-09-11T05:56:57.621Z,18.24
2023-09-11T05:58:29.225Z,19.92
2023-09-11T06:00:00.780Z,19.71
2023-09-11T06:01:32.641Z,20.99
2023-09-11T06:03:04.298Z,20.08
2023-09-11T06:04:35.790Z,21.33
2023-09-11T06:06:07.485Z,20.36
2023-09-11T06:07:39.234Z,20.57
2023-09-11T06:09:10.836Z,21.32
2023-09-11T06:10:42.460Z,20.36
2023-09-11T06:12:13.963Z,19.53
2023-09-11T06:13:45.550Z,19.58
2023-09-11T06:15:16.950Z,20.42
2023-09-11T06:16:48.400Z,23.01
2023-09-11T06:18:19.909Z,19.81
2023-09-11T06:19:51.597Z,20.39
2023-09-11T06:21:23.270Z,21.72
2023-09-11T06:22:54.909Z,20.26
2023-09-11T06:24:26.345Z,19.46
2023-09-11T06:25:57.956Z,21.50
2023-09-11T06:27:29.423Z,18.10
2023-09-11T06:29:00.864Z,21.36
2023-09-11T06:30:32.442Z,22.98
2023-09-11T06:32:04.026Z,22.74
2023-09-11T06:33:35.566Z,20.72
2023-09-11T06:35:07.408Z,22.70
2023-09-11T06:36:48.845Z,19.44
2023-09-11T06:38:20.312Z,21.11
2023-09-11T06:39:51.745Z,20.37
2023-09-11T06:41:23.519Z,21.63
2023-09-11T06:42:55.156Z,23.23
2023-09-11T06:44:26.601Z,21.18
2023-09-11T06:45:58.204Z,19.37
2023-09-11T06:47:29.868Z,20.47
2023-09-11T06:49:01.468Z,19.61
2023-09-11T06:50:33.164Z,19.28
2023-09-11T06:52:04.697Z,20.44
2023-09-11T06:53:36.218Z,19.48
2023-09-11T06:55:07.855Z,18.85
2023-09-11T06:56:39.525Z,19.14
2023-09-11T06:58:11.040Z,21.58
2023-09-11T06:59:57.503Z,18.58
2023-09-11T07:02:14.837Z,18.47
2023-09-11T07:04:31.207Z,20.51
2023-09-11T07:06:02.725Z,19.81
2023-09-11T07:07:34.401Z,19.30
2023-09-11T07:09:05.927Z,19.19
2023-09-11T07:10:41.324Z,19.73
2023-09-11T07:12:13.289Z,19.54
2023-09-11T07:13:44.757Z,19.75
2023-09-11T07:15:16.173Z,19.98
2023-09-11T07:16:47.890Z,22.55
2023-09-11T07:18:19.421Z,19.65
2023-09-11T07:19:50.957Z,18.54
2023-09-11T07:21:22.627Z,16.72
2023-09-11T07:22:54.035Z,18.07
2023-09-11T07:24:25.531Z,20.52
2023-09-11T07:25:57.189Z,18.64
2023-09-11T07:27:29.011Z,21.54
2023-09-11T07:29:00.473Z,18.52
2023-09-11T07:30:31.883Z,18.68
2023-09-11T07:32:03.367Z,17.32
2023-09-11T07:33:35.215Z,17.58
2023-09-11T07:35:21.734Z,18.75
2023-09-11T07:36:53.191Z,19.06
2023-09-11T07:38:24.680Z,18.97
2023-09-11T07:39:56.201Z,19.07
2023-09-11T07:41:27.708Z,17.33
2023-09-11T07:42:59.445Z,19.93
2023-09-11T07:44:31.092Z,17.15
2023-09-11T07:46:02.646Z,19.34
2023-09-11T07:47:34.207Z,19.34
2023-09-11T07:49:05.773Z,15.19
2023-09-11T07:50:37.403Z,19.70
2023-09-11T07:52:09.059Z,18.32
2023-09-11T07:53:40.613Z,17.33
2023-09-11T07:55:12.207Z,16.31
2023-09-11T07:56:43.746Z,20.86
2023-09-11T07:58:15.285Z,20.31
2023-09-11T07:59:46.879Z,18.41
2023-09-11T08:01:18.385Z,17.83
2023-09-11T08:02:50.184Z,15.19
2023-09-11T08:04:22.063Z,15.57
2023-09-11T08:05:53.708Z,17.76
2023-09-11T08:07:25.147Z,16.50
2023-09-11T08:08:56.952Z,16.05
2023-09-11T08:10:28.556Z,17.70
2023-09-11T08:12:00.219Z,17.30
2023-09-11T08:13:31.816Z,16.31
2023-09-11T08:15:03.342Z,16.79
2023-09-11T08:16:34.999Z,17.81
2023-09-11T08:18:06.608Z,15.71
2023-09-11T08:19:38.226Z,17.02
2023-09-11T08:21:09.732Z,17.55
2023-09-11T08:22:41.419Z,17.09
2023-09-11T08:24:12.995Z,17.52
2023-09-11T08:25:44.516Z,15.47
2023-09-11T08:27:16.068Z,14.66
2023-09-11T08:28:47.615Z,15.79
2023-09-11T08:30:19.216Z,15.69
2023-09-11T08:31:50.700Z,18.58
2023-09-11T08:33:22.423Z,18.22
2023-09-11T08:34:54.048Z,17.82
2023-09-11T08:36:25.749Z,14.95
2023-09-11T08:37:57.640Z,14.77
2023-09-11T08:39:31.053Z,17.49
2023-09-11T08:41:02.518Z,18.78
2023-09-11T08:42:34.085Z,17.12
2023-09-11T08:44:06.850Z,17.53
2023-09-11T08:45:38.356Z,16.34
2023-09-11T08:47:10.029Z,17.16
2023-09-11T08:48:41.956Z,17.00
2023-09-11T08:50:13.808Z,14.90
2023-09-11T08:51:45.433Z,14.69
2023-09-11T08:53:16.959Z,15.68
2023-09-11T08:54:48.634Z,16.72
2023-09-11T08:56:20.226Z,14.47
2023-09-11T08:57:51.717Z,14.97
2023-09-11T08:59:23.350Z,16.39
2023-09-11T09:00:54.883Z,18.24
2023-09-11T09:02:26.441Z,15.90
2023-09-11T09:03:58.284Z,17.23
2023-09-11T09:05:30.065Z,14.79
2023-09-11T09:07:01.627Z,15.07
2023-09-11T09:08:33.142Z,16.32
2023-09-11T09:10:04.720Z,15.10
2023-09-11T09:11:36.216Z,17.89
2023-09-11T09:13:07.763Z,15.71
2023-09-11T09:14:39.547Z,17.48
2023-09-11T09:16:11.230Z,16.17
2023-09-11T09:17:42.953Z,18.08
2023-09-11T09:19:14.584Z,19.07
2023-09-11T09:20:46.111Z,18.90
2023-09-11T09:22:17.772Z,15.10
2023-09-11T09:23:49.464Z,17.86
2023-09-11T09:25:20.995Z,16.12
2023-09-11T09:26:52.664Z,17.44
2023-09-11T09:28:24.166Z,16.74
2023-09-11T09:29:55.778Z,13.57
2023-09-11T09:31:48.967Z,15.80
2023-09-11T09:33:20.670Z,16.25
2023-09-11T09:34:52.515Z,13.27
2023-09-11T09:36:24.001Z,14.85
2023-09-11T09:37:55.588Z,18.45
2023-09-11T09:39:27.081Z,17.43
2023-09-11T09:40:58.538Z,21.53
2023-09-11T09:42:30.094Z,22.45
2023-09-11T09:44:03.413Z,19.33
2023-09-11T09:45:34.940Z,19.10
2023-09-11T09:47:06.796Z,18.67
2023-09-11T09:48:38.607Z,16.67
2023-09-11T09:50:10.290Z,12.98
2023-09-11T09:51:41.936Z,13.54
2023-09-11T09:53:13.484Z,18.88
2023-09-11T09:54:45.149Z,15.20
2023-09-11T09:56:16.853Z,15.17
2023-09-11T09:57:48.405Z,15.36
2023-09-11T09:59:19.997Z,15.86
2023-09-11T10:00:51.575Z,14.43
2023-09-11T10:02:23.345Z,16.69
2023-09-11T10:03:55.303Z,14.34
2023-09-11T10:05:27.105Z,15.46
2023-09-11T10:06:58.672Z,15.26
2023-09-11T10:08:30.268Z,17.14
2023-09-11T10:10:01.819Z,17.04
2023-09-11T10:11:38.379Z,15.33
2023-09-11T10:13:09.828Z,17.67
2023-09-11T10:14:41.379Z,13.88
2023-09-11T10:16:12.997Z,14.59
2023-09-11T10:17:49.540Z,13.34
2023-09-11T10:19:22.106Z,16.10
2023-09-11T10:20:53.730Z,16.67
2023-09-11T10:22:25.303Z,14.02
2023-09-11T10:23:58.802Z,16.32
2023-09-11T10:25:30.501Z,15.99
2023-09-11T10:27:02.157Z,14.08
2023-09-11T10:28:33.826Z,15.94
2023-09-11T10:30:05.464Z,14.97
2023-09-11T10:31:37.062Z,13.92
2023-09-11T10:33:08.806Z,14.52
2023-09-11T10:34:40.473Z,15.69
2023-09-11T10:36:12.069Z,15.99
2023-09-11T10:37:43.641Z,14.63
2023-09-11T10:39:15.230Z,12.57
2023-09-11T10:40:47.999Z,15.55
2023-09-11T10:42:19.671Z,18.00
2023-09-11T10:43:51.315Z,15.74
2023-09-11T10:45:22.975Z,15.52
2023-09-11T10:46:54.635Z,14.68
2023-09-11T10:48:26.212Z,17.02
2023-09-11T10:49:57.794Z,15.59
2023-09-11T10:51:29.650Z,15.48
2023-09-11T10:53:06.233Z,16.06
2023-09-11T10:54:37.746Z,15.31
2023-09-11T10:56:09.459Z,13.86
2023-09-11T10:57:41.019Z,15.52
2023-09-11T10:59:12.599Z,14.78
2023-09-11T11:00:44.677Z,12.18
2023-09-11T11:02:16.520Z,16.15
2023-09-11T11:03:48.462Z,16.69
2023-09-11T11:05:20.271Z,13.42
2023-09-11T11:06:51.896Z,14.21
2023-09-11T11:08:23.607Z,13.07
2023-09-11T11:09:55.203Z,12.38
2023-09-11T11:11:26.880Z,13.66
2023-09-11T11:12:58.689Z,14.62
2023-09-11T11:14:30.535Z,13.16
2023-09-11T11:16:02.479Z,13.13
2023-09-11T11:17:34.186Z,13.24
2023-09-11T11:19:05.804Z,12.71
2023-09-11T11:20:37.650Z,12.10
2023-09-11T11:22:09.393Z,11.26
2023-09-11T11:23:41.572Z,14.02
2023-09-11T11:25:13.640Z,10.66
2023-09-11T11:26:45.436Z,10.32
2023-09-11T11:28:17.297Z,12.50
2023-09-11T11:29:49.171Z,17.17
2023-09-11T11:31:21.064Z,12.89
2023-09-11T11:32:52.851Z,13.11
2023-09-11T11:34:24.551Z,14.41
2023-09-11T11:35:56.753Z,13.14
2023-09-11T11:37:28.612Z,13.98
2023-09-11T11:39:00.781Z,12.88
2023-09-11T11:40:32.432Z,17.36
2023-09-11T11:42:04.172Z,14.62
2023-09-11T11:43:36.001Z,13.22
2023-09-11T11:45:07.835Z,14.55
2023-09-11T11:46:39.644Z,12.94
2023-09-11T11:48:11.593Z,13.03
2023-09-11T11:49:43.411Z,16.06
2023-09-11T11:51:15.146Z,15.93
2023-09-11T11:52:46.873Z,13.11
2023-09-11T11:54:18.583Z,14.22
2023-09-11T11:55:50.315Z,15.09
2023-09-11T11:57:22.175Z,13.25
2023-09-11T11:58:53.945Z,12.05
2023-09-11T12:00:32.812Z,12.85
2023-09-11T12:02:19.552Z,13.31
2023-09-11T12:03:51.497Z,14.77
2023-09-11T12:05:23.405Z,11.38
2023-09-11T12:06:55.145Z,14.12
2023-09-11T12:08:27.035Z,14.82
2023-09-11T12:09:58.848Z,12.36
2023-09-11T12:11:30.559Z,12.67
2023-09-11T12:13:02.180Z,13.04
2023-09-11T12:14:34.019Z,10.59
2023-09-11T12:16:05.542Z,12.30
2023-09-11T12:17:37.520Z,12.93
2023-09-11T12:19:09.336Z,13.56
2023-09-11T12:20:40.959Z,11.09
2023-09-11T12:22:12.589Z,12.37
2023-09-11T12:23:44.618Z,11.95
2023-09-11T12:25:16.763Z,11.87
2023-09-11T12:27:09.937Z,11.24
2023-09-11T12:28:42.322Z,11.00
2023-09-11T12:30:14.356Z,11.74
2023-09-11T12:31:46.229Z,14.01
2023-09-11T12:33:18.086Z,13.08
2023-09-11T12:34:49.847Z,14.37
2023-09-11T12:36:21.732Z,12.17
2023-09-11T12:37:53.419Z,12.90
2023-09-11T12:39:24.956Z,12.81
2023-09-11T12:40:58.569Z,14.68
2023-09-11T12:42:30.792Z,12.05
2023-09-11T12:44:02.704Z,11.74
2023-09-11T12:45:34.317Z,10.36
2023-09-11T12:47:06.172Z,12.15
2023-09-11T12:48:37.939Z,12.62
2023-09-11T12:50:09.639Z,14.92
2023-09-11T12:51:41.825Z,9.88
2023-09-11T12:53:13.474Z,11.28
2023-09-11T12:54:45.350Z,11.03
2023-09-11T12:56:17.500Z,13.10
2023-09-11T12:57:49.327Z,10.62
2023-09-11T12:59:20.778Z,11.98
2023-09-11T13:00:52.568Z,12.57
2023-09-11T13:02:24.303Z,12.13
2023-09-11T13:03:57.303Z,10.64
2023-09-11T13:05:29.109Z,12.24
2023-09-11T13:07:06.004Z,10.66
2023-09-11T13:08:37.987Z,13.48
2023-09-11T13:10:19.603Z,12.23
2023-09-11T13:11:56.244Z,9.77
2023-09-11T13:13:35.041Z,13.22
2023-09-11T13:15:07.907Z,10.94
2023-09-11T13:16:39.615Z,11.04
2023-09-11T13:18:12.622Z,12.47
2023-09-11T13:19:54.659Z,12.41
2023-09-11T13:21:41.529Z,13.27
2023-09-11T13:23:14.399Z,12.80
2023-09-11T13:24:50.998Z,9.24
2023-09-11T13:26:22.641Z,11.07
2023-09-11T13:27:54.287Z,10.19
2023-09-11T13:29:31.411Z,10.79
2023-09-11T13:31:03.141Z,9.97
2023-09-11T13:32:46.833Z,12.13
2023-09-11T13:34:23.974Z,9.72
2023-09-11T13:35:55.676Z,11.22
2023-09-11T13:37:32.519Z,11.50
2023-09-11T13:39:04.429Z,11.84
2023-09-11T13:40:36.209Z,13.51
2023-09-11T13:42:08.243Z,11.38
2023-09-11T13:43:40.220Z,16.38
2023-09-11T13:45:12.652Z,10.98
2023-09-11T13:46:44.590Z,11.73
2023-09-11T13:48:16.342Z,12.28
2023-09-11T13:49:48.070Z,11.74
2023-09-11T13:51:19.741Z,12.70
2023-09-11T13:52:51.483Z,13.61
2023-09-11T13:54:28.391Z,11.61
2023-09-11T13:56:05.033Z,13.22
2023-09-11T13:57:37.781Z,13.14
2023-09-11T13:59:14.373Z,14.79
2023-09-11T14:00:46.063Z,11.57
2023-09-11T14:02:17.657Z,13.59
2023-09-11T14:03:49.804Z,14.86
2023-09-11T14:05:31.894Z,13.92
2023-09-11T14:07:11.272Z,15.77
2023-09-11T14:08:48.233Z,12.49
2023-09-11T14:10:19.879Z,11.49
2023-09-11T14:11:51.890Z,14.55
2023-09-11T14:13:23.608Z,16.58
2023-09-11T14:14:55.282Z,13.72
2023-09-11T14:16:27.389Z,11.90
2023-09-11T14:17:59.163Z,11.77
2023-09-11T14:19:31.049Z,12.56
2023-09-11T14:21:08.190Z,13.63
2023-09-11T14:22:41.015Z,13.10
2023-09-11T14:24:12.866Z,14.32
2023-09-11T14:25:44.470Z,14.30
2023-09-11T14:27:16.193Z,12.58
2023-09-11T14:28:48.073Z,13.77
2023-09-11T14:30:25.835Z,13.82
2023-09-11T14:32:02.661Z,13.36
2023-09-11T14:33:35.467Z,12.97
2023-09-11T14:35:12.258Z,13.29
2023-09-11T14:36:44.036Z,13.65
2023-09-11T14:38:20.966Z,11.18
2023-09-11T14:40:30.781Z,13.52
2023-09-11T14:42:07.340Z,12.11
2023-09-11T14:43:39.368Z,13.56
2023-09-11T14:45:11.627Z,11.81
2023-09-11T14:46:43.324Z,12.56
2023-09-11T14:48:15.005Z,12.62
2023-09-11T14:49:46.867Z,15.38
2023-09-11T14:51:20.015Z,13.20
2023-09-11T14:52:51.680Z,13.11
2023-09-11T14:54:35.848Z,14.41
2023-09-11T14:56:10.959Z,14.42
2023-09-11T14:57:42.599Z,11.42
2023-09-11T14:59:14.222Z,13.82
2023-09-11T15:00:45.806Z,14.39
2023-09-11T15:02:19.183Z,12.13
2023-09-11T15:05:53.123Z,13.07
2023-09-11T15:07:25.774Z,12.57
2023-09-11T15:08:58.785Z,12.32
2023-09-11T15:10:30.429Z,12.42
2023-09-11T15:12:02.555Z,9.96
2023-09-11T15:13:36.077Z,13.51
2023-09-11T15:15:12.729Z,10.42
2023-09-11T15:16:49.459Z,10.32
2023-09-11T15:18:32.349Z,11.22
2023-09-11T15:20:04.076Z,13.98
2023-09-11T15:21:35.655Z,12.74
2023-09-11T15:23:07.381Z,10.56
2023-09-11T15:24:48.839Z,10.49
2023-09-11T15:26:20.579Z,10.99
2023-09-11T15:27:52.609Z,12.62
2023-09-11T15:29:29.195Z,12.65
2023-09-11T15:31:00.938Z,11.44
2023-09-11T15:32:32.620Z,10.36
2023-09-11T15:34:04.301Z,8.90
2023-09-11T15:35:36.194Z,7.82
2023-09-11T15:37:07.900Z,9.00
2023-09-11T15:38:40.026Z,11.38
2023-09-11T15:40:11.827Z,8.97
2023-09-11T15:41:44.477Z,10.32
2023-09-11T15:43:21.338Z,11.37
2023-09-11T15:45:02.879Z,9.96
2023-09-11T15:46:41.244Z,10.83
2023-09-11T15:48:13.823Z,10.71
2023-09-11T15:49:50.569Z,9.83
2023-09-11T15:51:22.296Z,9.92
2023-09-11T15:52:54.077Z,9.91
2023-09-11T15:54:25.765Z,10.06
2023-09-11T15:55:57.600Z,9.94
2023-09-11T15:57:29.200Z,14.31
2023-09-11T15:59:00.815Z,11.62
2023-09-11T16:00:37.772Z,11.07
2023-09-11T16:02:09.506Z,10.40
2023-09-11T16:03:42.356Z,12.99
2023-09-11T16:05:20.175Z,10.97
2023-09-11T16:06:51.939Z,10.87
2023-09-11T16:08:29.541Z,12.15
2023-09-11T16:10:02.185Z,11.65
2023-09-11T16:11:33.842Z,12.36
2023-09-11T16:13:05.449Z,11.09
2023-09-11T16:14:37.167Z,10.50
2023-09-11T16:16:10.276Z,11.43
2023-09-11T16:17:43.128Z,10.04
2023-09-11T16:19:18.801Z,11.70
2023-09-11T16:20:55.596Z,11.92
2023-09-11T16:22:27.564Z,14.10
2023-09-11T16:23:59.624Z,11.41
2023-09-11T16:25:31.710Z,12.33
2023-09-11T16:27:03.317Z,13.36
2023-09-11T16:28:34.911Z,11.50
2023-09-11T16:30:11.661Z,14.82
2023-09-11T16:31:43.291Z,15.97
2023-09-11T16:33:15.305Z,13.87
2023-09-11T16:34:46.922Z,12.94
2023-09-11T16:36:29.013Z,14.92
2023-09-11T16:38:06.038Z,16.78
2023-09-11T16:39:37.818Z,15.15
2023-09-11T16:41:09.389Z,16.03
2023-09-11T16:42:41.029Z,16.50
2023-09-11T16:44:12.634Z,13.36
2023-09-11T16:45:49.333Z,13.56
2023-09-11T16:47:21.907Z,15.96
2023-09-11T16:48:58.567Z,12.49
2023-09-11T16:50:35.257Z,15.31
2023-09-11T16:52:06.949Z,13.94
2023-09-11T16:53:48.756Z,15.00
2023-09-11T16:55:20.700Z,13.22
2023-09-11T16:56:52.506Z,12.63
2023-09-11T16:58:24.399Z,13.31
2023-09-11T17:00:01.015Z,13.94
2023-09-11T17:01:37.794Z,15.41
2023-09-11T17:03:09.646Z,12.78
2023-09-11T17:04:46.411Z,15.67
2023-09-11T17:06:18.310Z,14.75
2023-09-11T17:07:50.103Z,11.86
2023-09-11T17:09:21.680Z,13.48
2023-09-11T17:10:53.309Z,12.86
2023-09-11T17:12:24.973Z,14.41
2023-09-11T17:13:56.584Z,15.13
2023-09-11T17:15:28.484Z,13.12
2023-09-11T17:17:10.046Z,14.25
2023-09-11T17:18:41.956Z,15.23
2023-09-11T17:20:13.748Z,14.05
2023-09-11T17:21:45.422Z,15.35
2023-09-11T17:23:17.002Z,12.58
2023-09-11T17:24:48.610Z,13.81
2023-09-11T17:26:21.384Z,12.65
2023-09-11T17:27:52.943Z,12.68
2023-09-11T17:29:24.483Z,12.61
2023-09-11T17:30:56.347Z,13.18
2023-09-11T17:32:28.002Z,11.20
2023-09-11T17:33:59.651Z,13.14
2023-09-11T17:35:58.089Z,15.07
2023-09-11T17:37:34.757Z,13.47
2023-09-11T17:39:06.334Z,15.36
2023-09-11T17:40:37.916Z,14.96
2023-09-11T17:42:09.496Z,12.83
2023-09-11T17:43:41.108Z,12.94
2023-09-11T17:45:12.653Z,14.19
2023-09-11T17:46:44.173Z,14.65
2023-09-11T17:48:15.794Z,15.47
2023-09-11T17:49:47.607Z,15.70
2023-09-11T17:51:19.247Z,13.91
2023-09-11T17:52:50.871Z,14.30
2023-09-11T17:54:22.556Z,16.01
2023-09-11T17:55:54.166Z,12.98
2023-09-11T17:57:25.717Z,15.80
2023-09-11T17:58:57.391Z,15.56
2023-09-11T18:00:29.324Z,11.71
2023-09-11T18:02:01.106Z,14.22
2023-09-11T18:03:32.785Z,14.14
2023-09-11T18:05:04.409Z,14.62
2023-09-11T18:06:36.053Z,14.80
2023-09-11T18:08:07.549Z,14.38
2023-09-11T18:09:39.232Z,13.53
2023-09-11T18:11:10.694Z,14.90
2023-09-11T18:12:42.275Z,17.82
2023-09-11T18:14:32.924Z,14.84
2023-09-11T18:16:04.527Z,14.15
2023-09-11T18:17:36.144Z,14.09
2023-09-11T18:19:07.627Z,16.47
2023-09-11T18:20:39.238Z,15.40
2023-09-11T18:22:10.738Z,15.43
2023-09-11T18:23:42.403Z,14.13
2023-09-11T18:25:13.884Z,14.68
2023-09-11T18:26:45.449Z,14.02
2023-09-11T18:28:17.034Z,13.36
2023-09-11T18:29:49.106Z,17.18
2023-09-11T18:31:20.708Z,17.07
2023-09-11T18:32:52.429Z,15.76
2023-09-11T18:34:37.001Z,15.80
2023-09-11T18:36:08.688Z,14.08
2023-09-11T18:37:40.293Z,15.68
2023-09-11T18:39:15.285Z,14.08
2023-09-11T18:40:57.448Z,15.64
2023-09-11T18:42:29.030Z,13.91
2023-09-11T18:44:00.570Z,13.88
2023-09-11T18:45:32.146Z,15.22
2023-09-11T18:47:03.812Z,16.03
2023-09-11T18:48:37.102Z,14.50
2023-09-11T18:50:08.878Z,15.26
2023-09-11T18:51:40.497Z,14.62
2023-09-11T18:53:12.014Z,13.27
2023-09-11T18:54:43.654Z,15.84
2023-09-11T18:56:15.182Z,14.48
2023-09-11T18:57:46.721Z,16.83
2023-09-11T18:59:18.366Z,13.83
2023-09-11T19:00:49.984Z,13.85
2023-09-11T19:02:21.642Z,16.22
2023-09-11T19:03:53.416Z,14.50
2023-09-11T19:05:25.076Z,16.61
2023-09-11T19:08:57.964Z,14.66
2023-09-11T19:10:29.490Z,13.11
2023-09-11T19:12:01.443Z,13.72
2023-09-11T19:13:33.099Z,15.15
2023-09-11T19:15:04.707Z,15.38
2023-09-11T19:16:36.284Z,15.24
2023-09-11T19:18:07.911Z,15.74
2023-09-11T19:19:39.481Z,17.10
2023-09-11T19:21:11.040Z,15.94
2023-09-11T19:22:42.689Z,19.39
2023-09-11T19:24:14.402Z,16.97
2023-09-11T19:25:45.977Z,14.17
2023-09-11T19:27:17.519Z,18.00
2023-09-11T19:28:50.201Z,17.39
2023-09-11T19:30:21.760Z,17.26
2023-09-11T19:31:53.380Z,20.13
2023-09-11T19:33:25.012Z,18.76
2023-09-11T19:34:56.769Z,22.70
2023-09-11T19:36:28.470Z,14.27
2023-09-11T19:38:00.041Z,17.34
2023-09-11T19:39:31.823Z,16.66
2023-09-11T19:41:03.371Z,16.17
2023-09-11T19:42:34.887Z,15.13
2023-09-11T19:44:06.360Z,16.19
2023-09-11T19:45:43.991Z,16.97
2023-09-11T19:47:15.619Z,16.36
2023-09-11T19:48:47.212Z,19.52
2023-09-11T19:50:18.999Z,15.79
2023-09-11T19:51:51.264Z,16.73
2023-09-11T19:53:22.903Z,15.01
2023-09-11T19:54:55.182Z,13.84
2023-09-11T19:56:27.596Z,14.91
2023-09-11T19:57:59.089Z,15.86
2023-09-11T19:59:30.594Z,16.47